createdAt,value
2022-10-01T00:01:27.622Z,98466.94
2022-10-01T00:03:55.329Z,98463.50
2022-10-01T00:06:24.763Z,98460.69
2022-10-01T00:08:53.498Z,98452.31
2022-10-01T00:11:24.637Z,98444.97
2022-10-01T00:13:54.039Z,98457.22
2022-10-01T00:16:23.485Z,98453.03
2022-10-01T00:18:53.629Z,98453.25
2022-10-01T00:21:23.561Z,98460.22
2022-10-01T00:23:55.263Z,98458.88
2022-10-01T00:26:28.101Z,98460.22
2022-10-01T00:28:57.666Z,98462.06
2022-10-01T00:31:26.075Z,98455.28
2022-10-01T00:33:54.053Z,98454.44
2022-10-01T00:36:22.166Z,98466.59
2022-10-01T00:38:49.854Z,98450.16
2022-10-01T00:41:19.351Z,98461.09
2022-10-01T00:43:51.097Z,98457.13
2022-10-01T00:46:23.542Z,98466.13
2022-10-01T00:48:58.112Z,98467.47
2022-10-01T00:51:27.483Z,98472.00
2022-10-01T00:53:59.577Z,98466.84
2022-10-01T00:56:27.300Z,98464.84
2022-10-01T00:58:56.565Z,98474.69
2022-10-01T01:01:25.241Z,98472.94
2022-10-01T01:03:53.060Z,98476.53
2022-10-01T01:06:20.801Z,98476.41
2022-10-01T01:08:55.709Z,98464.34
2022-10-01T01:11:34.302Z,98467.91
2022-10-01T01:14:12.795Z,98460.16
2022-10-01T01:16:48.546Z,98461.47
2022-10-01T01:19:32.866Z,98463.41
2022-10-01T01:22:04.176Z,98459.25
2022-10-01T01:24:44.812Z,98461.47
2022-10-01T01:27:25.822Z,98451.34
2022-10-01T01:30:01.233Z,98449.69
2022-10-01T01:32:33.661Z,98438.69
2022-10-01T01:35:05.075Z,98433.75
2022-10-01T01:37:38.345Z,98433.81
2022-10-01T01:40:11.480Z,98421.53
2022-10-01T01:42:42.822Z,98426.91
2022-10-01T01:45:16.488Z,98412.66
2022-10-01T01:47:46.375Z,98411.09
2022-10-01T01:50:16.861Z,98411.69
2022-10-01T01:52:44.639Z,98411.97
2022-10-01T01:55:12.603Z,98406.56
2022-10-01T01:57:43.655Z,98403.03
2022-10-01T02:00:14.751Z,98400.25
2022-10-01T02:02:48.047Z,98396.28
2022-10-01T02:05:18.757Z,98397.16
2022-10-01T02:08:18.354Z,98391.13
2022-10-01T02:11:03.202Z,98401.50
2022-10-01T02:13:38.950Z,98393.56
2022-10-01T02:16:18.942Z,98392.66
2022-10-01T02:18:50.770Z,98389.91
2022-10-01T02:21:24.366Z,98388.94
2022-10-01T02:23:58.058Z,98382.03
2022-10-01T02:26:28.265Z,98389.75
2022-10-01T02:29:01.407Z,98380.19
2022-10-01T02:31:33.104Z,98379.81
2022-10-01T02:34:03.386Z,98382.03
2022-10-01T02:36:33.450Z,98367.72
2022-10-01T02:39:03.351Z,98375.34
2022-10-01T02:41:35.784Z,98373.53
2022-10-01T02:44:07.874Z,98370.88
2022-10-01T02:46:42.892Z,98370.94
2022-10-01T02:49:13.322Z,98374.88
2022-10-01T02:51:49.408Z,98360.75
2022-10-01T02:54:25.295Z,98370.88
2022-10-01T02:57:10.458Z,98367.91
2022-10-01T02:59:38.154Z,98367.72
2022-10-01T03:02:07.424Z,98374.88
2022-10-01T03:04:35.171Z,98366.84
2022-10-01T03:07:04.275Z,98369.66
2022-10-01T03:09:32.223Z,98367.69
2022-10-01T03:12:00.911Z,98370.44
2022-10-01T03:14:28.962Z,98355.34
2022-10-01T03:16:56.623Z,98347.72
2022-10-01T03:19:25.615Z,98344.22
2022-10-01T03:21:53.275Z,98352.44
2022-10-01T03:24:20.866Z,98341.13
2022-10-01T03:26:49.047Z,98340.09
2022-10-01T03:29:16.700Z,98342.41
2022-10-01T03:31:44.495Z,98340.97
2022-10-01T03:34:13.233Z,98345.56
2022-10-01T03:36:42.374Z,98344.88
2022-10-01T03:39:10.125Z,98347.09
2022-10-01T03:41:37.849Z,98329.75
2022-10-01T03:44:05.573Z,98335.66
2022-10-01T03:46:33.318Z,98330.88
2022-10-01T03:49:01.058Z,98320.72
2022-10-01T03:51:29.182Z,98322.78
2022-10-01T03:53:59.400Z,98323.81
2022-10-01T03:56:27.737Z,98313.88
2022-10-01T03:58:55.449Z,98314.03
2022-10-01T04:01:23.325Z,98316.00
2022-10-01T04:03:51.126Z,98316.94
2022-10-01T04:06:19.127Z,98314.47
2022-10-01T04:08:46.785Z,98308.56
2022-10-01T04:11:16.036Z,98301.78
2022-10-01T04:13:43.697Z,98281.38
2022-10-01T04:16:11.413Z,98292.22
2022-10-01T04:18:39.344Z,98301.41
2022-10-01T04:21:07.405Z,98301.69
2022-10-01T04:23:35.277Z,98302.56
2022-10-01T04:26:03.549Z,98298.56
2022-10-01T04:28:32.991Z,98297.00
2022-10-01T04:31:14.807Z,98291.38
2022-10-01T04:33:42.675Z,98293.44
2022-10-01T04:36:10.392Z,98290.91
2022-10-01T04:38:38.125Z,98284.50
2022-10-01T04:41:06.052Z,98292.56
2022-10-01T04:43:35.119Z,98285.56
2022-10-01T04:46:02.822Z,98283.25
2022-10-01T04:48:30.549Z,98283.84
2022-10-01T04:51:00.682Z,98288.16
2022-10-01T04:53:28.735Z,98286.88
2022-10-01T04:55:56.453Z,98291.41
2022-10-01T04:58:24.106Z,98282.66
2022-10-01T05:00:53.224Z,98280.94
2022-10-01T05:03:21.132Z,98278.97
2022-10-01T05:05:48.847Z,98280.94
2022-10-01T05:08:16.691Z,98290.47
2022-10-01T05:10:44.466Z,98288.19
2022-10-01T05:13:12.150Z,98283.97
2022-10-01T05:15:39.829Z,98283.75
2022-10-01T05:18:09.074Z,98280.38
2022-10-01T05:20:37.739Z,98281.53
2022-10-01T05:23:05.636Z,98278.84
2022-10-01T05:25:33.329Z,98265.59
2022-10-01T05:28:05.029Z,98267.75
2022-10-01T05:30:33.163Z,98270.44
2022-10-01T05:33:02.534Z,98265.94
2022-10-01T05:35:32.275Z,98266.75
2022-10-01T05:38:01.779Z,98269.56
2022-10-01T05:40:31.005Z,98265.31
2022-10-01T05:43:00.045Z,98267.53
2022-10-01T05:45:28.816Z,98270.16
2022-10-01T05:48:01.709Z,98260.59
2022-10-01T05:50:32.099Z,98260.06
2022-10-01T05:52:59.997Z,98250.06
2022-10-01T05:55:31.719Z,98257.91
2022-10-01T05:58:01.207Z,98252.91
2022-10-01T06:00:29.882Z,98250.69
2022-10-01T06:02:58.506Z,98252.66
2022-10-01T06:05:27.219Z,98247.03
2022-10-01T06:07:56.481Z,98250.75
2022-10-01T06:10:25.012Z,98243.69
2022-10-01T06:12:52.985Z,98236.44
2022-10-01T06:15:20.679Z,98246.03
2022-10-01T06:17:48.330Z,98231.44
2022-10-01T06:20:19.338Z,98232.03
2022-10-01T06:22:54.865Z,98237.84
2022-10-01T06:25:24.596Z,98238.34
2022-10-01T06:27:54.220Z,98231.88
2022-10-01T06:30:22.081Z,98231.84
2022-10-01T06:32:49.837Z,98233.44
2022-10-01T06:35:17.557Z,98240.72
2022-10-01T06:37:45.267Z,98253.31
2022-10-01T06:40:13.034Z,98233.81
2022-10-01T06:42:48.266Z,98243.47
2022-10-01T06:45:17.869Z,98243.78
2022-10-01T06:47:45.648Z,98249.22
2022-10-01T06:50:13.353Z,98249.59
2022-10-01T06:52:49.876Z,98249.22
2022-10-01T06:55:18.145Z,98252.06
2022-10-01T06:57:47.968Z,98252.28
2022-10-01T07:00:15.845Z,98250.09
2022-10-01T07:02:43.598Z,98240.81
2022-10-01T07:05:12.366Z,98253.44
2022-10-01T07:07:40.309Z,98248.22
2022-10-01T07:10:10.372Z,98245.22
2022-10-01T07:12:39.567Z,98241.63
2022-10-01T07:15:10.045Z,98237.88
2022-10-01T07:17:44.910Z,98236.34
2022-10-01T07:20:14.703Z,98231.56
2022-10-01T07:22:42.710Z,98231.00
2022-10-01T07:25:10.806Z,98227.09
2022-10-01T07:27:39.109Z,98215.44
2022-10-01T07:30:09.803Z,98220.16
2022-10-01T07:32:37.510Z,98233.63
2022-10-01T07:35:06.827Z,98240.81
2022-10-01T07:37:34.602Z,98242.47
2022-10-01T07:40:07.189Z,98237.72
2022-10-01T07:42:35.447Z,98245.84
2022-10-01T07:45:04.298Z,98246.75
2022-10-01T07:47:33.512Z,98248.00
2022-10-01T07:50:01.288Z,98240.41
2022-10-01T07:52:29.120Z,98240.41
2022-10-01T07:54:56.851Z,98250.47
2022-10-01T07:57:24.637Z,98234.41
2022-10-01T07:59:55.664Z,98234.91
2022-10-01T08:02:23.819Z,98243.53
2022-10-01T08:05:10.372Z,98245.09
2022-10-01T08:07:38.127Z,98249.63
2022-10-01T08:10:06.686Z,98241.91
2022-10-01T08:12:34.447Z,98250.22
2022-10-01T08:15:03.080Z,98259.59
2022-10-01T08:17:31.860Z,98253.56
2022-10-01T08:20:01.372Z,98256.66
2022-10-01T08:22:29.093Z,98264.44
2022-10-01T08:24:56.904Z,98265.47
2022-10-01T08:27:25.318Z,98270.59
2022-10-01T08:29:53.433Z,98273.28
2022-10-01T08:32:22.017Z,98287.97
2022-10-01T08:34:53.332Z,98283.69
2022-10-01T08:37:28.188Z,98277.81
2022-10-01T08:39:56.640Z,98282.41
2022-10-01T08:42:39.503Z,98272.88
2022-10-01T08:45:14.169Z,98290.53
2022-10-01T08:47:44.976Z,98295.97
2022-10-01T08:50:18.047Z,98294.16
2022-10-01T08:52:53.382Z,98304.53
2022-10-01T08:55:24.851Z,98336.31
2022-10-01T08:57:55.922Z,98354.72
2022-10-01T09:00:23.948Z,98347.03
2022-10-01T09:02:53.127Z,98343.47
2022-10-01T09:05:25.696Z,98345.81
2022-10-01T09:08:09.492Z,98331.94
2022-10-01T09:10:45.632Z,98325.84
2022-10-01T09:13:39.633Z,98311.44
2022-10-01T09:16:19.132Z,98307.09
2022-10-01T09:19:01.221Z,98306.19
2022-10-01T09:21:44.545Z,98303.53
2022-10-01T09:24:16.497Z,98306.88
2022-10-01T09:26:49.116Z,98308.91
2022-10-01T09:29:22.937Z,98311.78
2022-10-01T09:31:54.084Z,98314.72
2022-10-01T09:34:29.932Z,98313.50
2022-10-01T09:37:05.552Z,98322.38
2022-10-01T09:39:39.297Z,98324.38
2022-10-01T09:42:07.318Z,98335.22
2022-10-01T09:44:35.518Z,98342.81
2022-10-01T09:47:03.193Z,98355.50
2022-10-01T09:49:35.038Z,98352.34
2022-10-01T09:52:07.181Z,98347.75
2022-10-01T09:54:43.022Z,98332.00
2022-10-01T09:57:14.845Z,98331.28
2022-10-01T09:59:48.310Z,98315.13
2022-10-01T10:02:21.239Z,98302.72
2022-10-01T10:04:59.439Z,98292.94
2022-10-01T10:07:27.651Z,98289.75
2022-10-01T10:09:56.768Z,98299.19
2022-10-01T10:12:29.286Z,98307.66
2022-10-01T10:14:58.954Z,98301.06
2022-10-01T10:17:26.819Z,98293.25
2022-10-01T10:19:57.909Z,98297.75
2022-10-01T10:22:27.630Z,98303.28
2022-10-01T10:24:58.501Z,98316.31
2022-10-01T10:27:29.003Z,98310.41
2022-10-01T10:30:04.164Z,98295.13
2022-10-01T10:32:32.154Z,98307.84
2022-10-01T10:35:05.516Z,98304.97
2022-10-01T10:37:37.366Z,98312.53
2022-10-01T10:40:08.968Z,98307.41
2022-10-01T10:42:38.867Z,98301.09
2022-10-01T10:45:17.898Z,98286.81
2022-10-01T10:47:48.065Z,98288.00
2022-10-01T10:50:30.103Z,98293.78
2022-10-01T10:52:58.710Z,98289.56
2022-10-01T10:55:30.953Z,98289.69
2022-10-01T10:58:11.512Z,98287.38
2022-10-01T11:00:48.040Z,98291.88
2022-10-01T11:03:17.907Z,98293.34
2022-10-01T11:05:45.696Z,98293.47
2022-10-01T11:08:20.055Z,98288.94
2022-10-01T11:10:59.097Z,98280.84
2022-10-01T11:13:44.860Z,98287.16
2022-10-01T11:16:30.529Z,98274.25
2022-10-01T11:19:09.224Z,98281.25
2022-10-01T11:21:51.687Z,98287.06
2022-10-01T11:24:38.933Z,98301.13
2022-10-01T11:27:17.529Z,98293.78
2022-10-01T11:30:01.382Z,98294.97
2022-10-01T11:32:38.517Z,98284.44
2022-10-01T11:35:29.550Z,98291.03
2022-10-01T11:38:29.801Z,98300.50
2022-10-01T11:41:05.027Z,98304.09
2022-10-01T11:43:39.006Z,98307.19
2022-10-01T11:46:12.221Z,98310.84
2022-10-01T11:48:45.129Z,98309.25
2022-10-01T11:51:17.300Z,98320.31
2022-10-01T11:53:50.362Z,98308.09
2022-10-01T11:56:40.821Z,98320.09
2022-10-01T11:59:17.759Z,98324.41
2022-10-01T12:01:52.407Z,98322.09
2022-10-01T12:04:31.617Z,98319.34
2022-10-01T12:07:06.263Z,98324.84
2022-10-01T12:09:47.159Z,98328.44
2022-10-01T12:12:20.405Z,98319.53
2022-10-01T12:14:53.504Z,98335.25
2022-10-01T12:17:27.277Z,98330.31
2022-10-01T12:19:58.254Z,98327.28
2022-10-01T12:22:29.852Z,98327.75
2022-10-01T12:24:57.895Z,98328.13
2022-10-01T12:27:40.843Z,98330.84
2022-10-01T12:30:13.676Z,98330.09
2022-10-01T12:32:58.873Z,98334.88
2022-10-01T12:35:39.019Z,98332.56
2022-10-01T12:38:18.346Z,98340.47
2022-10-01T12:40:50.929Z,98333.09
2022-10-01T12:43:53.020Z,98343.97
2022-10-01T12:46:34.107Z,98334.59
2022-10-01T12:49:14.792Z,98334.25
2022-10-01T12:51:45.711Z,98331.91
2022-10-01T12:54:34.275Z,98328.41
2022-10-01T12:57:12.457Z,98351.28
2022-10-01T12:59:57.589Z,98332.38
2022-10-01T13:02:53.052Z,98333.19
2022-10-01T13:05:28.447Z,98327.25
2022-10-01T13:08:08.868Z,98330.03
2022-10-01T13:10:48.770Z,98330.47
2022-10-01T13:13:22.049Z,98332.03
2022-10-01T13:15:56.037Z,98331.66
2022-10-01T13:18:36.999Z,98335.69
2022-10-01T13:21:11.758Z,98326.25
2022-10-01T13:23:46.143Z,98328.31
2022-10-01T13:26:19.325Z,98329.88
2022-10-01T13:29:15.959Z,98325.59
2022-10-01T13:31:55.050Z,98315.69
2022-10-01T13:34:29.131Z,98344.97
2022-10-01T13:36:56.837Z,98318.13
2022-10-01T13:39:25.923Z,98308.56
2022-10-01T13:41:58.961Z,98315.31
2022-10-01T13:44:33.852Z,98320.88
2022-10-01T13:47:05.964Z,98330.00
2022-10-01T13:49:37.462Z,98324.03
2022-10-01T13:52:05.954Z,98324.81
2022-10-01T13:54:39.918Z,98319.69
2022-10-01T13:57:11.027Z,98318.09
2022-10-01T13:59:39.707Z,98321.66
2022-10-01T14:02:29.198Z,98316.91
2022-10-01T14:05:06.661Z,98311.38
2022-10-01T14:07:39.878Z,98325.19
2022-10-01T14:10:14.782Z,98326.00
2022-10-01T14:13:03.591Z,98321.25
2022-10-01T14:16:03.322Z,98323.63
2022-10-01T14:18:35.465Z,98324.44
2022-10-01T14:21:13.389Z,98329.59
2022-10-01T14:23:50.120Z,98334.72
2022-10-01T14:26:24.157Z,98339.09
2022-10-01T14:29:04.881Z,98332.72
2022-10-01T14:31:50.779Z,98335.91
2022-10-01T14:34:42.304Z,98359.25
2022-10-01T14:37:17.263Z,98358.44
2022-10-01T14:39:45.969Z,98334.56
2022-10-01T14:42:17.410Z,98340.94
2022-10-01T14:44:46.829Z,98344.88
2022-10-01T14:47:19.331Z,98340.59
2022-10-01T14:49:47.871Z,98341.03
2022-10-01T14:52:23.084Z,98342.59
2022-10-01T14:54:59.062Z,98364.81
2022-10-01T14:57:34.969Z,98348.91
2022-10-01T15:00:07.969Z,98360.38
2022-10-01T15:02:35.749Z,98347.59
2022-10-01T15:05:20.068Z,98355.97
2022-10-01T15:07:49.608Z,98359.22
2022-10-01T15:10:18.999Z,98339.06
2022-10-01T15:12:48.677Z,98352.53
2022-10-01T15:15:19.452Z,98356.09
2022-10-01T15:17:47.782Z,98362.84
2022-10-01T15:20:16.165Z,98369.56
2022-10-01T15:22:45.406Z,98357.28
2022-10-01T15:25:22.175Z,98361.66
2022-10-01T15:27:50.414Z,98359.69
2022-10-01T15:30:19.348Z,98375.47
2022-10-01T15:32:49.514Z,98372.34
2022-10-01T15:35:21.081Z,98358.47
2022-10-01T15:37:50.628Z,98364.41
2022-10-01T15:40:35.339Z,98372.28
2022-10-01T15:43:20.805Z,98371.94
2022-10-01T15:46:34.855Z,98358.84
2022-10-01T15:49:16.745Z,98363.22
2022-10-01T15:52:06.788Z,98371.91
2022-10-01T15:54:35.780Z,98401.16
2022-10-01T15:57:06.378Z,98373.47
2022-10-01T15:59:35.537Z,98386.13
2022-10-01T16:02:09.576Z,98381.41
2022-10-01T16:04:37.550Z,98384.97
2022-10-01T16:07:05.305Z,98380.56
2022-10-01T16:09:33.121Z,98394.44
2022-10-01T16:12:04.173Z,98394.84
2022-10-01T16:14:36.728Z,98396.81
2022-10-01T16:17:28.284Z,98414.19
2022-10-01T16:19:57.811Z,98428.03
2022-10-01T16:22:28.215Z,98411.44
2022-10-01T16:24:57.670Z,98412.25
2022-10-01T16:27:28.075Z,98417.38
2022-10-01T16:30:04.194Z,98428.03
2022-10-01T16:32:33.094Z,98447.41
2022-10-01T16:35:19.314Z,98430.41
2022-10-01T16:37:49.972Z,98430.44
2022-10-01T16:40:18.486Z,98431.19
2022-10-01T16:42:47.154Z,98439.13
2022-10-01T16:45:18.912Z,98439.09
2022-10-01T16:47:47.347Z,98440.25
2022-10-01T16:50:17.883Z,98454.84
2022-10-01T16:52:45.630Z,98453.28
2022-10-01T16:55:18.226Z,98454.09
2022-10-01T16:57:45.989Z,98459.97
2022-10-01T17:00:16.550Z,98461.56
2022-10-01T17:02:44.871Z,98476.91
2022-10-01T17:05:19.715Z,98479.34
2022-10-01T17:07:47.444Z,98480.50
2022-10-01T17:10:17.269Z,98484.84
2022-10-01T17:12:47.865Z,98494.38
2022-10-01T17:15:19.304Z,98485.59
2022-10-01T17:17:47.962Z,98487.97
2022-10-01T17:20:15.740Z,98495.91
2022-10-01T17:22:43.785Z,98495.88
2022-10-01T17:25:15.906Z,98508.13
2022-10-01T17:27:43.631Z,98505.72
2022-10-01T17:30:11.919Z,98495.84
2022-10-01T17:32:42.867Z,98495.06
2022-10-01T17:35:11.393Z,98498.19
2022-10-01T17:37:39.154Z,98505.69
2022-10-01T17:40:08.668Z,98508.44
2022-10-01T17:42:36.667Z,98523.41
2022-10-01T17:45:06.922Z,98524.97
2022-10-01T17:47:34.802Z,98539.19
2022-10-01T17:50:05.132Z,98532.84
2022-10-01T17:52:33.139Z,98550.22
2022-10-01T17:55:00.841Z,98571.38
2022-10-01T17:57:28.703Z,98571.19
2022-10-01T17:59:56.606Z,98575.91
2022-10-01T18:02:40.863Z,98581.44
2022-10-01T18:05:12.389Z,98586.94
2022-10-01T18:07:40.673Z,98595.72
2022-10-01T18:10:11.771Z,98599.75
2022-10-01T18:12:39.724Z,98599.41
2022-10-01T18:15:08.470Z,98604.56
2022-10-01T18:17:42.922Z,98621.63
2022-10-01T18:20:12.673Z,98621.94
2022-10-01T18:22:40.438Z,98622.38
2022-10-01T18:25:08.795Z,98615.69
2022-10-01T18:27:36.506Z,98624.41
2022-10-01T18:30:04.331Z,98626.31
2022-10-01T18:32:37.503Z,98636.94
2022-10-01T18:35:15.372Z,98629.88
2022-10-01T18:37:50.707Z,98632.28
2022-10-01T18:40:20.664Z,98643.69
2022-10-01T18:42:53.623Z,98648.41
2022-10-01T18:45:31.611Z,98670.72
2022-10-01T18:48:11.545Z,98660.50
2022-10-01T18:50:44.205Z,98667.13
2022-10-01T18:53:30.225Z,98666.66
2022-10-01T18:56:14.939Z,98673.78
2022-10-01T18:58:53.459Z,98685.47
2022-10-01T19:01:28.749Z,98687.81
2022-10-01T19:04:13.091Z,98686.22
2022-10-01T19:06:56.020Z,98682.34
2022-10-01T19:09:41.503Z,98675.16
2022-10-01T19:12:24.294Z,98688.56
2022-10-01T19:15:00.816Z,98690.50
2022-10-01T19:17:47.029Z,98695.63
2022-10-01T19:20:26.127Z,98703.53
2022-10-01T19:23:19.530Z,98694.19
2022-10-01T19:25:52.283Z,98711.16
2022-10-01T19:28:35.458Z,98726.44
2022-10-01T19:31:13.468Z,98735.22
2022-10-01T19:33:47.823Z,98739.25
2022-10-01T19:36:19.059Z,98741.97
2022-10-01T19:38:49.869Z,98748.72
2022-10-01T19:41:25.662Z,98744.81
2022-10-01T19:43:57.409Z,98750.88
2022-10-01T19:46:30.588Z,98758.66
2022-10-01T19:49:05.310Z,98765.44
2022-10-01T19:51:36.118Z,98774.84
2022-10-01T19:54:04.429Z,98776.53
2022-10-01T19:56:37.920Z,98794.72
2022-10-01T19:59:34.695Z,98825.69
2022-10-01T20:02:13.660Z,98864.66
2022-10-01T20:04:51.731Z,98858.56
2022-10-01T20:07:24.592Z,98867.19
2022-10-01T20:10:05.442Z,98859.72
2022-10-01T20:12:48.721Z,98872.16
2022-10-01T20:15:35.088Z,98868.28
2022-10-01T20:18:14.632Z,98885.84
2022-10-01T20:20:48.181Z,98891.97
2022-10-01T20:23:38.314Z,98897.19
2022-10-01T20:26:17.449Z,98902.78
2022-10-01T20:29:06.002Z,98905.09
2022-10-01T20:31:39.390Z,98897.16
2022-10-01T20:34:17.347Z,98907.47
2022-10-01T20:36:51.015Z,98911.56
2022-10-01T20:39:22.538Z,98914.63
2022-10-01T20:41:53.188Z,98903.59
2022-10-01T20:44:25.786Z,98902.28
2022-10-01T20:46:57.044Z,98904.13
2022-10-01T20:49:30.940Z,98910.81
2022-10-01T20:52:03.538Z,98909.22
2022-10-01T20:54:36.779Z,98905.28
2022-10-01T20:57:10.870Z,98916.31
2022-10-01T20:59:43.535Z,98914.00
2022-10-01T21:02:29.692Z,98918.28
2022-10-01T21:05:04.347Z,98920.69
2022-10-01T21:07:38.857Z,98924.69
2022-10-01T21:10:18.146Z,98933.91
2022-10-01T21:12:51.730Z,98942.50
2022-10-01T21:15:23.539Z,98942.44
2022-10-01T21:17:58.500Z,98939.91
2022-10-01T21:20:52.706Z,98940.38
2022-10-01T21:23:38.412Z,98935.34
2022-10-01T21:26:16.171Z,98933.44
2022-10-01T21:29:03.590Z,98926.16
2022-10-01T21:31:45.674Z,98915.63
2022-10-01T21:34:17.662Z,98936.03
2022-10-01T21:36:56.719Z,98943.34
2022-10-01T21:39:33.150Z,98942.78
2022-10-01T21:42:14.759Z,98958.91
2022-10-01T21:45:01.956Z,98964.56
2022-10-01T21:47:43.815Z,98970.81
2022-10-01T21:50:23.284Z,98983.03
2022-10-01T21:53:10.713Z,98982.28
2022-10-01T21:56:08.010Z,98981.25
2022-10-01T21:58:50.732Z,98976.69
2022-10-01T22:01:25.889Z,98972.06
2022-10-01T22:04:02.441Z,98971.66
2022-10-01T22:06:36.114Z,98980.09
2022-10-01T22:09:11.073Z,98980.00
2022-10-01T22:11:41.910Z,98988.38
2022-10-01T22:14:16.158Z,98994.03
2022-10-01T22:16:50.686Z,98994.41
2022-10-01T22:19:24.265Z,98997.78
2022-10-01T22:21:56.957Z,98989.47
2022-10-01T22:24:31.119Z,99000.78
2022-10-01T22:27:06.451Z,98990.69
2022-10-01T22:29:38.768Z,98997.47
2022-10-01T22:32:09.781Z,99010.28
2022-10-01T22:34:46.057Z,98990.31
2022-10-01T22:37:19.314Z,99005.59
2022-10-01T22:39:51.150Z,99006.00
2022-10-01T22:42:24.127Z,99012.00
2022-10-01T22:44:52.339Z,99022.34
2022-10-01T22:47:38.911Z,99022.88
2022-10-01T22:50:21.335Z,99015.44
2022-10-01T22:53:04.849Z,99015.94
2022-10-01T22:55:41.904Z,99018.69
2022-10-01T22:58:25.085Z,99031.22
2022-10-01T23:01:01.593Z,99025.97
2022-10-01T23:03:43.345Z,99022.50
2022-10-01T23:06:22.478Z,99029.75
2022-10-01T23:08:59.305Z,99023.22
2022-10-01T23:11:33.375Z,99022.06
2022-10-01T23:14:09.761Z,99029.44
2022-10-01T23:16:45.098Z,99032.69
2022-10-01T23:19:29.335Z,99022.91
2022-10-01T23:22:06.044Z,99027.09
2022-10-01T23:24:52.440Z,99028.88
2022-10-01T23:27:31.817Z,99034.50
2022-10-01T23:30:11.575Z,99045.53
2022-10-01T23:33:11.436Z,99049.84
2022-10-01T23:35:48.537Z,99050.41
2022-10-01T23:38:40.576Z,99047.69
2022-10-01T23:41:18.078Z,99050.94
2022-10-01T23:43:49.777Z,99047.06
2022-10-01T23:46:22.944Z,99048.34
2022-10-01T23:48:57.035Z,99052.59
2022-10-01T23:51:29.378Z,99058.41
2022-10-01T23:54:06.585Z,99060.50
2022-10-01T23:56:48.879Z,99071.72
2022-10-01T23:59:23.459Z,99071.72
